createdAt,value
2018-07-12T00:00:12.993Z,17.67
2018-07-12T00:01:12.971Z,17.78
2018-07-12T00:02:12.931Z,17.78
2018-07-12T00:03:12.903Z,17.80
2018-07-12T00:04:12.878Z,17.68
2018-07-12T00:05:12.841Z,17.74
2018-07-12T00:06:12.803Z,17.72
2018-07-12T00:07:12.800Z,17.74
2018-07-12T00:08:12.736Z,17.68
2018-07-12T00:09:12.704Z,17.80
2018-07-12T00:10:12.676Z,17.70
2018-07-12T00:11:12.652Z,17.80
2018-07-12T00:12:12.605Z,17.78
2018-07-12T00:13:12.596Z,17.79
2018-07-12T00:14:12.541Z,17.79
2018-07-12T00:15:12.510Z,17.82
2018-07-12T00:16:12.475Z,17.83
2018-07-12T00:17:12.460Z,17.68
2018-07-12T00:18:12.422Z,17.80
2018-07-12T00:19:12.380Z,17.78
2018-07-12T00:20:12.361Z,17.80
2018-07-12T00:21:12.314Z,17.82
2018-07-12T00:22:13.191Z,17.72
2018-07-12T00:23:12.285Z,17.82
2018-07-12T00:24:12.222Z,17.78
2018-07-12T00:25:12.187Z,17.74
2018-07-12T00:26:12.206Z,17.65
2018-07-12T00:27:12.118Z,17.72
2018-07-12T00:28:12.087Z,17.80
2018-07-12T00:29:12.053Z,17.80
2018-07-12T00:30:12.029Z,17.82
2018-07-12T00:31:11.999Z,17.78
2018-07-12T00:32:11.961Z,17.79
2018-07-12T00:33:11.923Z,17.70
2018-07-12T00:34:11.898Z,17.72
2018-07-12T00:35:11.862Z,17.85
2018-07-12T00:36:11.840Z,17.82
2018-07-12T00:37:11.803Z,17.71
2018-07-12T00:38:11.771Z,17.80
2018-07-12T00:39:11.753Z,17.80
2018-07-12T00:40:11.710Z,17.79
2018-07-12T00:41:11.669Z,17.82
2018-07-12T00:42:11.639Z,17.74
2018-07-12T00:43:11.643Z,17.83
2018-07-12T00:44:11.572Z,17.79
2018-07-12T00:45:11.541Z,17.85
2018-07-12T00:46:11.512Z,17.79
2018-07-12T00:47:11.472Z,17.71
2018-07-12T00:48:11.463Z,17.78
2018-07-12T00:49:11.416Z,17.80
2018-07-12T00:50:11.383Z,17.74
2018-07-12T00:51:11.371Z,17.78
2018-07-12T00:52:11.312Z,17.79
2018-07-12T00:53:11.281Z,17.72
2018-07-12T00:54:11.244Z,17.78
2018-07-12T00:55:11.215Z,17.74
2018-07-12T00:56:11.185Z,17.79
2018-07-12T00:57:11.155Z,17.78
2018-07-12T00:58:11.124Z,17.82
2018-07-12T00:59:12.766Z,17.72
2018-07-12T01:00:11.055Z,17.82
2018-07-12T01:01:11.019Z,17.86
2018-07-12T01:02:11.016Z,17.89
2018-07-12T01:03:11.018Z,17.79
2018-07-12T01:04:11.540Z,17.79
2018-07-12T01:05:10.899Z,17.83
2018-07-12T01:06:10.889Z,17.87
2018-07-12T01:07:10.865Z,17.82
2018-07-12T01:08:10.800Z,17.86
2018-07-12T01:09:10.763Z,17.85
2018-07-12T01:10:10.734Z,17.85
2018-07-12T01:11:10.840Z,17.83
2018-07-12T01:12:10.682Z,17.86
2018-07-12T01:13:10.633Z,17.85
2018-07-12T01:14:10.610Z,17.80
2018-07-12T01:15:10.568Z,17.83
2018-07-12T01:16:10.546Z,17.83
2018-07-12T01:17:10.506Z,17.85
2018-07-12T01:18:10.506Z,17.74
2018-07-12T01:19:10.450Z,17.76
2018-07-12T01:20:10.423Z,17.79
2018-07-12T01:21:10.405Z,17.78
2018-07-12T01:22:10.356Z,17.80
2018-07-12T01:23:10.322Z,17.78
2018-07-12T01:24:10.281Z,17.78
2018-07-12T01:25:10.252Z,17.80
2018-07-12T01:26:10.268Z,17.80
2018-07-12T01:27:10.183Z,17.82
2018-07-12T01:28:10.165Z,17.74
2018-07-12T01:29:10.140Z,17.78
2018-07-12T01:30:10.092Z,17.74
2018-07-12T01:31:10.053Z,17.71
2018-07-12T01:32:10.023Z,17.71
2018-07-12T01:33:09.990Z,17.70
2018-07-12T01:34:09.954Z,17.68
2018-07-12T01:35:09.923Z,17.72
2018-07-12T01:36:09.953Z,17.79
2018-07-12T01:37:09.873Z,17.64
2018-07-12T01:38:09.827Z,17.74
2018-07-12T01:39:09.795Z,17.71
2018-07-12T01:40:09.765Z,17.80
2018-07-12T01:41:09.770Z,17.74
2018-07-12T01:42:09.704Z,17.65
2018-07-12T01:43:09.674Z,17.68
2018-07-12T01:44:09.632Z,17.70
2018-07-12T01:45:09.613Z,17.79
2018-07-12T01:46:09.575Z,17.74
2018-07-12T01:47:09.546Z,17.72
2018-07-12T01:48:09.530Z,17.72
2018-07-12T01:49:09.475Z,17.71
2018-07-12T01:50:09.439Z,17.79
2018-07-12T01:51:09.431Z,17.78
2018-07-12T01:52:09.378Z,17.78
2018-07-12T01:53:09.349Z,17.74
2018-07-12T01:54:09.333Z,17.74
2018-07-12T01:55:09.281Z,17.70
2018-07-12T01:56:09.245Z,17.79
2018-07-12T01:57:09.216Z,17.71
2018-07-12T01:58:09.186Z,17.64
2018-07-12T01:59:09.150Z,17.70
2018-07-12T02:00:09.121Z,17.70
2018-07-12T02:01:09.083Z,17.71
2018-07-12T02:02:09.085Z,17.70
2018-07-12T02:03:09.029Z,17.82
2018-07-12T02:04:09.005Z,17.72
2018-07-12T02:05:08.970Z,17.78
2018-07-12T02:06:08.925Z,17.76
2018-07-12T02:07:08.892Z,17.72
2018-07-12T02:08:08.864Z,17.72
2018-07-12T02:09:08.826Z,17.82
2018-07-12T02:10:08.811Z,17.76
2018-07-12T02:11:08.766Z,17.87
2018-07-12T02:12:08.736Z,17.72
2018-07-12T02:13:08.705Z,17.74
2018-07-12T02:14:08.681Z,17.76
2018-07-12T02:15:08.635Z,17.71
2018-07-12T02:16:08.602Z,17.72
2018-07-12T02:17:08.586Z,17.72
2018-07-12T02:18:08.543Z,17.78
2018-07-12T02:19:08.516Z,17.70
2018-07-12T02:20:08.477Z,17.65
2018-07-12T02:21:08.445Z,17.70
2018-07-12T02:22:08.408Z,17.85
2018-07-12T02:23:08.381Z,17.76
2018-07-12T02:24:08.358Z,17.79
2018-07-12T02:25:08.329Z,17.65
2018-07-12T02:26:08.278Z,17.83
2018-07-12T02:27:08.249Z,17.78
2018-07-12T02:28:08.240Z,17.85
2018-07-12T02:29:08.184Z,17.78
2018-07-12T02:30:08.148Z,17.85
2018-07-12T02:31:08.118Z,17.76
2018-07-12T02:32:08.090Z,17.78
2018-07-12T02:33:08.055Z,17.68
2018-07-12T02:34:08.021Z,17.80
2018-07-12T02:35:08.010Z,17.76
2018-07-12T02:36:08.017Z,17.72
2018-07-12T02:37:07.933Z,17.83
2018-07-12T02:38:07.951Z,17.71
2018-07-12T02:39:07.859Z,17.70
2018-07-12T02:40:07.852Z,17.78
2018-07-12T02:41:07.796Z,17.80
2018-07-12T02:42:07.780Z,17.76
2018-07-12T02:43:07.766Z,17.74
2018-07-12T02:44:07.701Z,17.79
2018-07-12T02:45:07.666Z,17.76
2018-07-12T02:46:07.632Z,17.74
2018-07-12T02:47:07.609Z,17.79
2018-07-12T02:48:07.578Z,17.76
2018-07-12T02:49:07.539Z,17.83
2018-07-12T02:50:07.502Z,17.83
2018-07-12T02:51:07.484Z,17.79
2018-07-12T02:52:07.440Z,17.76
2018-07-12T02:53:07.442Z,17.80
2018-07-12T02:54:07.376Z,17.79
2018-07-12T02:55:07.340Z,17.86
2018-07-12T02:56:07.316Z,17.72
2018-07-12T02:57:07.279Z,17.72
2018-07-12T02:58:07.274Z,17.78
2018-07-12T02:59:07.498Z,17.76
2018-07-12T03:00:07.194Z,17.85
2018-07-12T03:01:07.147Z,17.78
2018-07-12T03:02:07.131Z,17.72
2018-07-12T03:03:07.088Z,17.72
2018-07-12T03:04:07.053Z,17.70
2018-07-12T03:05:07.044Z,17.71
2018-07-12T03:06:07.019Z,17.70
2018-07-12T03:07:06.954Z,17.79
2018-07-12T03:08:06.921Z,17.79
2018-07-12T03:09:08.811Z,17.74
2018-07-12T03:10:06.868Z,17.68
2018-07-12T03:11:06.826Z,17.74
2018-07-12T03:12:06.793Z,17.59
2018-07-12T03:13:06.758Z,17.60
2018-07-12T03:14:06.730Z,17.60
2018-07-12T03:15:06.697Z,17.54
2018-07-12T03:16:06.663Z,17.63
2018-07-12T03:17:06.633Z,17.57
2018-07-12T03:18:06.595Z,17.59
2018-07-12T03:19:06.586Z,17.56
2018-07-12T03:20:06.565Z,17.52
2018-07-12T03:21:06.499Z,17.44
2018-07-12T03:22:06.467Z,17.36
2018-07-12T03:23:06.438Z,17.36
2018-07-12T03:24:06.410Z,17.26
2018-07-12T03:25:06.369Z,17.24
2018-07-12T03:26:06.334Z,17.24
2018-07-12T03:27:06.305Z,17.29
2018-07-12T03:28:06.275Z,17.22
2018-07-12T03:29:06.241Z,17.20
2018-07-12T03:30:06.216Z,17.19
2018-07-12T03:31:06.183Z,17.14
2018-07-12T03:32:06.496Z,17.12
2018-07-12T03:33:06.153Z,17.15
2018-07-12T03:34:06.107Z,17.06
2018-07-12T03:35:06.048Z,17.09
2018-07-12T03:36:06.015Z,17.11
2018-07-12T03:37:05.980Z,17.05
2018-07-12T03:38:05.964Z,16.90
2018-07-12T03:39:05.978Z,16.97
2018-07-12T03:40:05.883Z,17.11
2018-07-12T03:41:05.850Z,17.04
2018-07-12T03:42:05.844Z,16.93
2018-07-12T03:43:05.786Z,16.94
2018-07-12T03:44:05.746Z,16.96
2018-07-12T03:45:05.716Z,16.94
2018-07-12T03:46:05.827Z,16.93
2018-07-12T03:47:05.688Z,17.01
2018-07-12T03:48:05.683Z,17.01
2018-07-12T03:49:05.590Z,16.93
2018-07-12T03:50:05.551Z,16.94
2018-07-12T03:51:05.520Z,16.91
2018-07-12T03:52:05.485Z,16.84
2018-07-12T03:53:05.480Z,16.84
2018-07-12T03:54:05.455Z,16.87
2018-07-12T03:55:05.389Z,16.83
2018-07-12T03:56:05.358Z,16.78
2018-07-12T03:57:05.327Z,16.81
2018-07-12T03:58:05.384Z,16.83
2018-07-12T03:59:05.259Z,16.83
2018-07-12T04:00:05.492Z,16.89
2018-07-12T04:01:05.193Z,16.78
2018-07-12T04:02:05.744Z,16.84
2018-07-12T04:03:05.746Z,16.75
2018-07-12T04:04:05.494Z,16.74
2018-07-12T04:05:05.066Z,16.79
2018-07-12T04:06:05.053Z,16.84
2018-07-12T04:07:05.229Z,16.84
2018-07-12T04:08:04.972Z,16.81
2018-07-12T04:09:04.946Z,16.81
2018-07-12T04:10:04.917Z,16.84
2018-07-12T04:11:04.870Z,16.84
2018-07-12T04:12:04.864Z,16.96
2018-07-12T04:13:04.833Z,16.93
2018-07-12T04:14:04.767Z,16.96
2018-07-12T04:15:04.745Z,16.90
2018-07-12T04:16:04.730Z,16.94
2018-07-12T04:17:04.671Z,16.96
2018-07-12T04:18:04.640Z,16.96
2018-07-12T04:19:04.609Z,16.93
2018-07-12T04:20:04.575Z,16.96
2018-07-12T04:21:05.163Z,16.96
2018-07-12T04:22:04.510Z,17.11
2018-07-12T04:23:04.494Z,17.11
2018-07-12T04:24:04.444Z,17.06
2018-07-12T04:25:04.414Z,17.14
2018-07-12T04:26:04.382Z,17.15
2018-07-12T04:27:04.348Z,17.12
2018-07-12T04:28:04.310Z,17.15
2018-07-12T04:29:04.276Z,17.14
2018-07-12T04:30:04.247Z,17.20
2018-07-12T04:31:04.215Z,17.26
2018-07-12T04:32:04.191Z,17.27
2018-07-12T04:33:04.149Z,17.24
2018-07-12T04:34:04.116Z,17.38
2018-07-12T04:35:04.085Z,17.36
2018-07-12T04:36:04.053Z,17.36
2018-07-12T04:37:04.022Z,17.49
2018-07-12T04:38:03.983Z,17.44
2018-07-12T04:39:03.955Z,17.57
2018-07-12T04:40:03.934Z,17.41
2018-07-12T04:41:03.888Z,17.48
2018-07-12T04:42:03.860Z,17.65
2018-07-12T04:43:03.827Z,17.59
2018-07-12T04:44:03.792Z,17.56
2018-07-12T04:45:03.767Z,17.59
2018-07-12T04:46:03.732Z,17.52
2018-07-12T04:47:03.692Z,17.54
2018-07-12T04:48:03.661Z,17.48
2018-07-12T04:49:03.635Z,17.59
2018-07-12T04:50:03.602Z,17.64
2018-07-12T04:51:03.580Z,17.63
2018-07-12T04:52:03.537Z,17.68
2018-07-12T04:53:03.502Z,17.70
2018-07-12T04:54:03.468Z,17.76
2018-07-12T04:55:03.467Z,17.68
2018-07-12T04:56:03.400Z,17.85
2018-07-12T04:57:03.369Z,17.85
2018-07-12T04:58:03.401Z,17.87
2018-07-12T04:59:03.312Z,17.90
2018-07-12T05:00:03.278Z,17.98
2018-07-12T05:01:03.251Z,17.90
2018-07-12T05:02:03.307Z,18.05
2018-07-12T05:03:03.178Z,18.03
2018-07-12T05:04:03.307Z,18.01
2018-07-12T05:05:03.262Z,18.18
2018-07-12T05:06:03.308Z,18.08
2018-07-12T05:07:03.058Z,18.13
2018-07-12T05:08:03.020Z,18.19
2018-07-12T05:09:02.985Z,18.35
2018-07-12T05:10:02.955Z,18.28
2018-07-12T05:11:02.920Z,18.28
2018-07-12T05:12:02.888Z,18.37
2018-07-12T05:13:03.457Z,18.47
2018-07-12T05:14:02.827Z,18.52
2018-07-12T05:15:02.795Z,18.60
2018-07-12T05:16:02.790Z,18.59
2018-07-12T05:17:02.732Z,18.77
2018-07-12T05:18:02.696Z,18.73
2018-07-12T05:19:02.670Z,18.80
2018-07-12T05:20:02.637Z,18.77
2018-07-12T05:21:02.602Z,18.93
2018-07-12T05:22:02.725Z,19.07
2018-07-12T05:23:02.538Z,19.04
2018-07-12T05:24:02.520Z,19.16
2018-07-12T05:25:02.484Z,19.18
2018-07-12T05:26:02.446Z,19.33
2018-07-12T05:27:02.413Z,19.51
2018-07-12T05:28:02.384Z,19.64
2018-07-12T05:29:02.351Z,19.55
2018-07-12T05:30:02.316Z,19.66
2018-07-12T05:31:02.288Z,19.85
2018-07-12T05:32:02.252Z,19.96
2018-07-12T05:33:02.227Z,19.92
2018-07-12T05:34:02.193Z,19.96
2018-07-12T05:35:02.157Z,20.09
2018-07-12T05:36:02.131Z,20.10
2018-07-12T05:37:02.104Z,19.96
2018-07-12T05:38:02.071Z,20.00
2018-07-12T05:39:02.078Z,19.96
2018-07-12T05:40:02.007Z,19.89
2018-07-12T05:41:01.974Z,19.77
2018-07-12T05:42:01.948Z,19.84
2018-07-12T05:43:01.917Z,19.77
2018-07-12T05:44:02.207Z,19.74
2018-07-12T05:45:01.852Z,19.79
2018-07-12T05:46:01.818Z,19.69
2018-07-12T05:47:01.793Z,19.63
2018-07-12T05:48:01.754Z,19.66
2018-07-12T05:49:01.727Z,19.73
2018-07-12T05:50:01.696Z,19.64
2018-07-12T05:51:01.668Z,19.58
2018-07-12T05:52:01.631Z,19.56
2018-07-12T05:53:01.605Z,19.62
2018-07-12T05:54:01.565Z,19.58
2018-07-12T05:55:01.541Z,19.74
2018-07-12T05:56:01.509Z,19.73
2018-07-12T05:57:01.487Z,19.82
2018-07-12T05:58:01.448Z,19.84
2018-07-12T05:59:01.410Z,19.94
2018-07-12T06:00:01.382Z,19.95
2018-07-12T06:01:01.351Z,19.92
2018-07-12T06:02:01.317Z,19.86
2018-07-12T06:03:01.362Z,19.85
2018-07-12T06:04:01.263Z,19.85
2018-07-12T06:05:01.226Z,19.86
2018-07-12T06:06:01.227Z,19.84
2018-07-12T06:07:01.168Z,19.84
2018-07-12T06:08:01.134Z,19.88
2018-07-12T06:09:01.104Z,19.86
2018-07-12T06:10:01.074Z,19.76
2018-07-12T06:11:01.036Z,19.81
2018-07-12T06:12:01.009Z,19.88
2018-07-12T06:13:00.979Z,20.02
2018-07-12T06:14:00.950Z,20.13
2018-07-12T06:15:00.915Z,20.14
2018-07-12T06:16:00.904Z,20.24
2018-07-12T06:17:00.907Z,20.36
2018-07-12T06:18:00.824Z,20.47
2018-07-12T06:19:00.847Z,20.59
2018-07-12T06:20:00.763Z,20.66
2018-07-12T06:21:00.726Z,20.80
2018-07-12T06:22:00.699Z,21.05
2018-07-12T06:23:00.680Z,21.14
2018-07-12T06:24:00.635Z,21.20
2018-07-12T06:25:01.029Z,21.37
2018-07-12T06:26:00.572Z,21.46
2018-07-12T06:27:00.543Z,21.40
2018-07-12T06:28:00.515Z,21.55
2018-07-12T06:29:00.486Z,21.54
2018-07-12T06:30:00.481Z,21.73
2018-07-12T06:31:00.431Z,21.70
2018-07-12T06:32:00.436Z,21.79
2018-07-12T06:33:00.363Z,21.82
2018-07-12T06:34:00.333Z,21.83
2018-07-12T06:35:00.304Z,21.89
2018-07-12T06:36:00.275Z,21.64
2018-07-12T06:37:00.246Z,21.82
2018-07-12T06:38:00.211Z,21.92
2018-07-12T06:39:00.200Z,21.82
2018-07-12T06:40:00.152Z,21.66
2018-07-12T06:41:00.122Z,21.70
2018-07-12T06:42:00.094Z,21.60
2018-07-12T06:43:00.060Z,21.60
2018-07-12T06:44:00.041Z,21.55
2018-07-12T06:45:00.024Z,21.40
2018-07-12T06:46:00.009Z,21.36
2018-07-12T06:47:00.054Z,21.52
2018-07-12T06:47:59.915Z,21.48
2018-07-12T06:48:59.884Z,21.40
2018-07-12T06:49:59.849Z,21.30
2018-07-12T06:50:59.819Z,21.29
2018-07-12T06:51:59.793Z,21.25
2018-07-12T06:52:59.766Z,21.22
2018-07-12T06:53:59.738Z,21.17
2018-07-12T06:54:59.702Z,21.15
2018-07-12T06:55:59.670Z,21.20
2018-07-12T06:56:59.641Z,21.15
2018-07-12T06:57:59.609Z,21.06
2018-07-12T06:58:59.589Z,21.06
2018-07-12T06:59:59.550Z,21.02
2018-07-12T07:01:00.085Z,21.02
2018-07-12T07:01:59.490Z,20.92
2018-07-12T07:02:59.457Z,20.90
2018-07-12T07:03:59.436Z,20.92
2018-07-12T07:04:59.398Z,21.02
2018-07-12T07:05:59.453Z,21.15
2018-07-12T07:06:59.418Z,21.40
2018-07-12T07:07:59.311Z,21.48
2018-07-12T07:08:59.282Z,21.58
2018-07-12T07:09:59.251Z,21.85
2018-07-12T07:10:59.215Z,21.99
2018-07-12T07:11:59.190Z,21.99
2018-07-12T07:12:59.165Z,22.07
2018-07-12T07:13:59.127Z,22.28
2018-07-12T07:14:59.099Z,22.39
2018-07-12T07:15:59.071Z,22.44
2018-07-12T07:16:59.037Z,22.28
2018-07-12T07:17:59.005Z,22.38
2018-07-12T07:18:58.977Z,22.30
2018-07-12T07:19:58.981Z,22.22
2018-07-12T07:20:58.916Z,22.23
2018-07-12T07:21:58.892Z,22.25
2018-07-12T07:22:58.859Z,22.25
2018-07-12T07:23:58.826Z,22.18
2018-07-12T07:24:58.797Z,22.20
2018-07-12T07:25:58.781Z,22.23
2018-07-12T07:26:58.741Z,22.15
2018-07-12T07:27:58.715Z,22.06
2018-07-12T07:28:58.681Z,22.00
2018-07-12T07:29:58.652Z,22.04
2018-07-12T07:30:58.619Z,21.88
2018-07-12T07:31:58.593Z,21.92
2018-07-12T07:32:58.587Z,21.79
2018-07-12T07:33:58.531Z,21.83
2018-07-12T07:34:58.503Z,21.60
2018-07-12T07:35:58.473Z,21.57
2018-07-12T07:36:58.441Z,21.52
2018-07-12T07:37:58.413Z,21.40
2018-07-12T07:38:58.384Z,21.52
2018-07-12T07:39:58.376Z,21.67
2018-07-12T07:40:58.327Z,21.88
2018-07-12T07:41:58.291Z,21.88
2018-07-12T07:42:58.312Z,21.89
2018-07-12T07:43:58.239Z,22.07
2018-07-12T07:44:58.203Z,22.32
2018-07-12T07:45:58.172Z,22.59
2018-07-12T07:46:58.145Z,22.60
2018-07-12T07:47:58.117Z,22.59
2018-07-12T07:48:58.095Z,22.59
2018-07-12T07:49:58.061Z,22.57
2018-07-12T07:50:58.027Z,22.59
2018-07-12T07:51:57.997Z,22.68
2018-07-12T07:52:57.964Z,22.88
2018-07-12T07:53:57.936Z,22.94
2018-07-12T07:54:57.909Z,23.15
2018-07-12T07:55:57.881Z,23.25
2018-07-12T07:56:57.851Z,23.31
2018-07-12T07:57:57.824Z,23.46
2018-07-12T07:58:57.792Z,23.48
2018-07-12T07:59:57.764Z,23.41
2018-07-12T08:00:57.737Z,23.78
2018-07-12T08:01:57.706Z,23.93
2018-07-12T08:02:57.680Z,23.98
2018-07-12T08:03:57.655Z,24.05
2018-07-12T08:04:57.617Z,23.98
2018-07-12T08:05:57.592Z,24.03
2018-07-12T08:06:57.561Z,24.11
2018-07-12T08:07:57.533Z,24.29
2018-07-12T08:08:57.506Z,24.30
2018-07-12T08:09:57.485Z,24.17
2018-07-12T08:10:57.448Z,24.13
2018-07-12T08:11:57.419Z,23.87
2018-07-12T08:12:57.391Z,23.81
2018-07-12T08:13:57.366Z,23.80
2018-07-12T08:14:57.336Z,23.68
2018-07-12T08:15:57.309Z,23.62
2018-07-12T08:16:57.277Z,23.77
2018-07-12T08:17:57.256Z,23.87
2018-07-12T08:18:57.223Z,23.80
2018-07-12T08:19:57.190Z,24.02
2018-07-12T08:20:57.165Z,24.18
2018-07-12T08:21:57.143Z,23.98
2018-07-12T08:22:57.106Z,24.14
2018-07-12T08:23:57.082Z,24.30
2018-07-12T08:24:57.047Z,24.61
2018-07-12T08:25:57.023Z,24.76
2018-07-12T08:26:56.994Z,24.85
2018-07-12T08:27:56.964Z,24.55
2018-07-12T08:28:56.938Z,24.65
2018-07-12T08:29:56.914Z,24.78
2018-07-12T08:30:56.881Z,24.57
2018-07-12T08:31:56.853Z,24.61
2018-07-12T08:32:56.827Z,24.48
2018-07-12T08:33:56.797Z,24.70
2018-07-12T08:34:56.775Z,24.74
2018-07-12T08:35:56.745Z,24.69
2018-07-12T08:36:56.717Z,24.57
2018-07-12T08:37:56.685Z,24.66
2018-07-12T08:38:56.657Z,24.55
2018-07-12T08:39:56.633Z,24.73
2018-07-12T08:40:56.600Z,25.16
2018-07-12T08:41:56.571Z,25.40
2018-07-12T08:42:56.545Z,25.80
2018-07-12T08:43:56.523Z,26.19
2018-07-12T08:44:56.494Z,26.43
2018-07-12T08:45:56.463Z,26.63
2018-07-12T08:46:56.440Z,26.89
2018-07-12T08:47:56.409Z,27.18
2018-07-12T08:48:56.382Z,27.54
2018-07-12T08:49:56.355Z,27.37
2018-07-12T08:50:56.328Z,27.35
2018-07-12T08:51:56.296Z,27.12
2018-07-12T08:52:56.275Z,26.62
2018-07-12T08:53:56.256Z,26.56
2018-07-12T08:54:56.223Z,26.53
2018-07-12T08:55:56.196Z,26.29
2018-07-12T08:56:56.170Z,26.07
2018-07-12T08:57:56.138Z,25.84
2018-07-12T08:58:56.116Z,25.87
2018-07-12T08:59:56.091Z,25.87
2018-07-12T09:00:56.064Z,25.95
2018-07-12T09:01:56.037Z,25.84
2018-07-12T09:02:56.044Z,25.77
2018-07-12T09:03:55.983Z,25.95
2018-07-12T09:04:55.955Z,25.93
2018-07-12T09:05:55.930Z,25.72
2018-07-12T09:06:55.902Z,25.65
2018-07-12T09:07:55.873Z,25.81
2018-07-12T09:08:55.846Z,25.81
2018-07-12T09:09:55.820Z,25.88
2018-07-12T09:10:55.786Z,25.83
2018-07-12T09:11:55.763Z,25.98
2018-07-12T09:12:55.776Z,26.03
2018-07-12T09:13:55.709Z,26.33
2018-07-12T09:14:55.685Z,26.66
2018-07-12T09:15:55.658Z,26.74
2018-07-12T09:16:55.634Z,27.08
2018-07-12T09:17:55.602Z,27.08
2018-07-12T09:18:55.577Z,27.17
2018-07-12T09:19:55.551Z,27.12
2018-07-12T09:20:55.528Z,26.73
2018-07-12T09:21:55.496Z,26.84
2018-07-12T09:22:55.469Z,26.81
2018-07-12T09:23:55.442Z,26.77
2018-07-12T09:24:55.418Z,26.83
2018-07-12T09:25:55.397Z,26.51
2018-07-12T09:26:55.364Z,26.33
2018-07-12T09:27:55.338Z,26.47
2018-07-12T09:28:55.350Z,26.31
2018-07-12T09:29:55.283Z,26.26
2018-07-12T09:30:55.331Z,26.36
2018-07-12T09:31:55.231Z,26.28
2018-07-12T09:32:55.210Z,26.38
2018-07-12T09:33:55.176Z,26.25
2018-07-12T09:34:55.195Z,26.05
2018-07-12T09:35:55.121Z,26.00
2018-07-12T09:36:55.133Z,25.98
2018-07-12T09:37:55.068Z,25.73
2018-07-12T09:38:55.049Z,25.80
2018-07-12T09:39:55.013Z,25.62
2018-07-12T09:40:54.988Z,25.55
2018-07-12T09:41:54.957Z,25.40
2018-07-12T09:42:54.949Z,25.41
2018-07-12T09:43:54.907Z,25.51
2018-07-12T09:44:54.897Z,25.53
2018-07-12T09:45:54.905Z,25.70
2018-07-12T09:46:54.819Z,26.00
2018-07-12T09:47:54.787Z,26.13
2018-07-12T09:48:54.798Z,26.16
2018-07-12T09:49:54.738Z,26.05
2018-07-12T09:50:54.705Z,26.15
2018-07-12T09:51:54.688Z,26.31
2018-07-12T09:52:54.657Z,26.44
2018-07-12T09:53:54.623Z,26.25
2018-07-12T09:54:54.599Z,26.15
2018-07-12T09:55:54.635Z,25.96
2018-07-12T09:56:54.546Z,25.93
2018-07-12T09:57:54.527Z,26.09
2018-07-12T09:58:54.489Z,26.00
2018-07-12T09:59:54.464Z,26.16
2018-07-12T10:00:54.435Z,26.37
2018-07-12T10:01:54.407Z,26.45
2018-07-12T10:02:54.377Z,26.71
2018-07-12T10:03:54.361Z,26.99
2018-07-12T10:04:54.324Z,27.32
2018-07-12T10:05:54.295Z,27.30
2018-07-12T10:06:54.273Z,27.33
2018-07-12T10:07:54.245Z,27.22
2018-07-12T10:08:54.218Z,27.15
2018-07-12T10:09:54.213Z,27.32
2018-07-12T10:10:54.160Z,27.36
2018-07-12T10:11:54.136Z,27.59
2018-07-12T10:12:54.110Z,27.51
2018-07-12T10:13:54.079Z,27.70
2018-07-12T10:14:54.053Z,27.80
2018-07-12T10:15:54.238Z,28.07
2018-07-12T10:16:54.004Z,28.05
2018-07-12T10:17:53.973Z,28.20
2018-07-12T10:18:53.951Z,27.96
2018-07-12T10:19:53.944Z,28.02
2018-07-12T10:20:53.902Z,28.35
2018-07-12T10:21:53.876Z,28.69
2018-07-12T10:22:53.844Z,28.47
2018-07-12T10:23:53.816Z,28.60
2018-07-12T10:24:53.793Z,28.26
2018-07-12T10:25:53.768Z,28.02
2018-07-12T10:26:53.734Z,27.85
2018-07-12T10:27:53.724Z,27.78
2018-07-12T10:28:53.690Z,27.93
2018-07-12T10:29:53.709Z,28.62
2018-07-12T10:30:53.634Z,29.20
2018-07-12T10:31:53.613Z,29.49
2018-07-12T10:32:53.583Z,29.42
2018-07-12T10:33:53.555Z,29.31
2018-07-12T10:34:53.530Z,28.86
2018-07-12T10:35:53.521Z,29.05
2018-07-12T10:36:53.480Z,28.86
2018-07-12T10:37:53.453Z,28.62
2018-07-12T10:38:53.427Z,28.63
2018-07-12T10:39:53.412Z,28.56
2018-07-12T10:40:53.373Z,28.29
2018-07-12T10:41:53.348Z,27.96
2018-07-12T10:42:53.323Z,27.87
2018-07-12T10:43:53.301Z,27.71
2018-07-12T10:44:53.269Z,27.83
2018-07-12T10:45:53.244Z,27.73
2018-07-12T10:46:53.218Z,28.05
2018-07-12T10:47:53.192Z,28.14
2018-07-12T10:48:53.166Z,28.10
2018-07-12T10:49:53.138Z,27.87
2018-07-12T10:50:53.111Z,27.85
2018-07-12T10:51:53.096Z,27.70
2018-07-12T10:52:53.124Z,27.60
2018-07-12T10:53:53.030Z,27.30
2018-07-12T10:54:53.009Z,27.21
2018-07-12T10:55:52.980Z,26.96
2018-07-12T10:56:52.953Z,26.84
2018-07-12T10:57:52.933Z,26.74
2018-07-12T10:58:52.902Z,26.73
2018-07-12T10:59:52.873Z,27.55
2018-07-12T11:00:52.852Z,28.32
2018-07-12T11:01:52.818Z,28.94
2018-07-12T11:02:52.792Z,29.16
2018-07-12T11:03:52.764Z,29.10
2018-07-12T11:04:52.742Z,29.42
2018-07-12T11:05:52.710Z,29.49
2018-07-12T11:06:52.694Z,29.27
2018-07-12T11:07:52.659Z,29.31
2018-07-12T11:08:52.634Z,29.07
2018-07-12T11:09:52.662Z,28.98
2018-07-12T11:10:52.580Z,28.67
2018-07-12T11:11:52.557Z,28.54
2018-07-12T11:12:52.531Z,28.78
2018-07-12T11:13:52.500Z,28.93
2018-07-12T11:14:52.479Z,29.16
2018-07-12T11:15:52.494Z,29.86
2018-07-12T11:16:52.423Z,30.35
2018-07-12T11:17:52.398Z,30.83
2018-07-12T11:18:52.902Z,31.66
2018-07-12T11:19:52.348Z,31.64
2018-07-12T11:20:52.322Z,31.18
2018-07-12T11:21:52.801Z,30.78
2018-07-12T11:22:52.270Z,30.75
2018-07-12T11:23:52.250Z,30.90
2018-07-12T11:24:52.219Z,31.05
2018-07-12T11:25:52.195Z,31.02
2018-07-12T11:26:52.170Z,30.87
2018-07-12T11:27:52.155Z,30.57
2018-07-12T11:28:52.123Z,29.95
2018-07-12T11:29:52.095Z,29.49
2018-07-12T11:30:52.068Z,29.10
2018-07-12T11:31:52.045Z,28.69
2018-07-12T11:32:52.019Z,28.62
2018-07-12T11:33:51.991Z,29.13
2018-07-12T11:34:51.966Z,29.63
2018-07-12T11:35:51.996Z,29.94
2018-07-12T11:36:51.919Z,30.21
2018-07-12T11:37:51.889Z,30.44
2018-07-12T11:38:51.867Z,30.88
2018-07-12T11:39:51.838Z,31.25
2018-07-12T11:40:51.814Z,31.61
2018-07-12T11:41:52.220Z,31.64
2018-07-12T11:42:51.764Z,31.73
2018-07-12T11:43:51.738Z,31.94
2018-07-12T11:44:51.714Z,32.45
2018-07-12T11:45:51.688Z,32.64
2018-07-12T11:46:51.661Z,32.37
2018-07-12T11:47:51.638Z,32.53
2018-07-12T11:48:51.612Z,32.40
2018-07-12T11:49:51.588Z,31.92
2018-07-12T11:50:51.585Z,31.71
2018-07-12T11:51:51.536Z,31.66
2018-07-12T11:52:51.572Z,32.18
2018-07-12T11:53:51.487Z,32.65
2018-07-12T11:54:51.463Z,32.67
2018-07-12T11:55:51.438Z,32.95
2018-07-12T11:56:51.422Z,33.50
2018-07-12T11:57:51.387Z,34.11
2018-07-12T11:58:51.364Z,34.27
2018-07-12T11:59:51.338Z,33.62
2018-07-12T12:00:51.316Z,33.08
2018-07-12T12:01:51.356Z,32.70
2018-07-12T12:02:51.265Z,32.53
2018-07-12T12:03:51.244Z,32.29
2018-07-12T12:04:51.217Z,32.08
2018-07-12T12:05:51.190Z,31.74
2018-07-12T12:06:51.181Z,30.99
2018-07-12T12:07:51.144Z,30.77
2018-07-12T12:08:51.117Z,30.72
2018-07-12T12:09:51.092Z,30.73
2018-07-12T12:10:51.073Z,31.02
2018-07-12T12:11:51.041Z,31.52
2018-07-12T12:12:51.021Z,31.44
2018-07-12T12:13:50.991Z,31.55
2018-07-12T12:14:50.964Z,31.66
2018-07-12T12:15:50.942Z,31.40
2018-07-12T12:16:50.922Z,31.12
2018-07-12T12:17:50.888Z,30.47
2018-07-12T12:18:50.863Z,30.77
2018-07-12T12:19:50.844Z,30.48
2018-07-12T12:20:50.816Z,30.77
2018-07-12T12:21:51.262Z,30.62
2018-07-12T12:22:50.765Z,30.48
2018-07-12T12:23:50.746Z,30.55
2018-07-12T12:24:50.710Z,30.02
2018-07-12T12:25:50.691Z,29.59
2018-07-12T12:26:50.666Z,29.47
2018-07-12T12:27:50.641Z,29.08
2018-07-12T12:28:50.616Z,28.93
2018-07-12T12:29:50.587Z,28.85
2018-07-12T12:30:50.577Z,28.72
2018-07-12T12:31:50.536Z,28.70
2018-07-12T12:32:50.509Z,28.27
2018-07-12T12:33:50.482Z,28.11
2018-07-12T12:34:50.458Z,28.01
2018-07-12T12:35:50.431Z,27.96
2018-07-12T12:36:50.411Z,28.01
2018-07-12T12:37:50.378Z,28.14
2018-07-12T12:38:50.351Z,28.14
2018-07-12T12:39:50.326Z,28.14
2018-07-12T12:40:50.296Z,28.19
2018-07-12T12:41:50.316Z,28.64
2018-07-12T12:42:50.246Z,29.87
2018-07-12T12:43:50.217Z,30.50
2018-07-12T12:44:50.194Z,30.78
2018-07-12T12:45:50.163Z,30.55
2018-07-12T12:46:50.144Z,31.06
2018-07-12T12:47:50.111Z,30.97
2018-07-12T12:48:50.089Z,30.48
2018-07-12T12:49:50.058Z,30.43
2018-07-12T12:50:50.056Z,30.08
2018-07-12T12:51:50.010Z,29.73